Thunder radar more information blitzortung!


Löydät sääaseman tiedot myös:

European Weather Network

Finland Weather Exchange

Weather Underground

AWEKAS



Weather Underground säähistoriasivu

Päivittäin yhteenveto Elokuu 2, 2017 Yksiköt:  Englantilaiset    Metriset   Molemmat
« Edellinen Päivä
Seuraava Päivä »
Päivittäin Viikoittain Kuukausittain Vuosittain Mukautettu
  Korkea: Matala: Keskiarvo:
Lämpötila: TemperatureC °F 12.6 °F 15.3 °F
Kastepiste: DewpointC °F 11.8 °F 13.9 °F
Kosteus: Humidity % 79 % 90 %
Tuulen nopeus: WindSpeedKMH mph 0.0 mph 0.7 mph
Tuulenpuuska: WindSpeedGustKMH mph - -
Tuuli:- - SSW
Ilmanpaine: PressurehPa in 1004.6 in -
Sade: 1.8 in    
Historical Graphs
 
 
Taulukkotiedot Elokuu 2, 2017
Aika Lämpötila Kastepiste Ilmanpaine Tuuli Tuulen nopeus Tuulenpuuska Kosteus Sademäärä (tunneittain)
TemperatureC °F DewpointC °F PressurehPa in Calm     Humidity % HourlyPrecipMM in
00:00 14.3 °F 12.1 °F 1011.1 in Calm   6.4 mph 87 % 0.0 in
00:15 14.4 °F 12.4 °F 1011.1 in SW 1.6 mph 4.8 mph 88 % 0.0 in
00:30 14.3 °F 12.5 °F 1011.1 in Calm   4.8 mph 89 % 0.0 in
00:45 14.2 °F 12.6 °F 1011.1 in SW 1.6 mph 8.0 mph 90 % 0.0 in
01:00 14.1 °F 12.7 °F 1011.1 in SW 1.6 mph 6.4 mph 91 % 0.0 in
01:15 13.9 °F 12.7 °F 1011.1 in SW 1.6 mph 8.0 mph 92 % 0.0 in
01:30 14.0 °F 12.7 °F 1010.7 in SSW 3.2 mph 9.7 mph 92 % 0.0 in
01:45 14.0 °F 12.9 °F 1010.7 in SSW 1.6 mph 6.4 mph 93 % 0.0 in
02:00 13.9 °F 12.8 °F 1010.4 in Calm   6.4 mph 93 % 0.0 in
02:15 13.9 °F 12.9 °F 1010.4 in South 1.6 mph 8.0 mph 94 % 0.0 in
02:30 14.0 °F 13.0 °F 1010.4 in SSW 1.6 mph 11.3 mph 94 % 0.0 in
02:45 14.0 °F 13.0 °F 1010.4 in SW 1.6 mph 8.0 mph 94 % 0.0 in
03:00 13.9 °F 13.2 °F 1010.4 in SSW 1.6 mph 9.7 mph 95 % 0.0 in
03:15 14.1 °F 13.3 °F 1010.4 in SSW 1.6 mph 9.7 mph 95 % 0.0 in
03:30 14.4 °F 13.6 °F 1010.0 in SSW 4.8 mph 12.9 mph 95 % 0.0 in
03:45 14.5 °F 13.7 °F 1010.0 in SSW 3.2 mph 12.9 mph 95 % 0.0 in
04:00 14.7 °F 13.9 °F 1010.0 in SSW 4.8 mph 14.5 mph 95 % 0.0 in
04:15 14.9 °F 14.0 °F 1009.7 in SSW 4.8 mph 12.9 mph 94 % 0.0 in
04:30 15.1 °F 14.1 °F 1009.4 in SSW 1.6 mph 6.4 mph 94 % 0.0 in
04:45 15.0 °F 14.0 °F 1009.0 in SSW 1.6 mph 9.7 mph 94 % 0.0 in
05:00 14.9 °F 14.0 °F 1009.4 in Calm   6.4 mph 94 % 0.0 in
05:15 14.9 °F 14.0 °F 1009.4 in Calm   6.4 mph 94 % 0.0 in
05:30 14.8 °F 13.9 °F 1009.0 in Calm     94 % 0.0 in
05:45 14.7 °F 13.8 °F 1009.0 in Calm   4.8 mph 94 % 0.0 in
06:00 14.6 °F 13.7 °F 1009.4 in Calm   8.0 mph 94 % 0.0 in
06:15 14.6 °F 13.7 °F 1009.0 in Calm   4.8 mph 94 % 0.0 in
06:30 14.6 °F 13.8 °F 1009.0 in Calm     95 % 0.0 in
06:45 14.6 °F 13.8 °F 1009.0 in Calm   6.4 mph 95 % 0.0 in
07:00 14.6 °F 13.8 °F 1008.7 in Calm   1.6 mph 95 % 0.0 in
07:15 14.6 °F 13.8 °F 1008.7 in Calm   4.8 mph 95 % 0.0 in
07:30 14.7 °F 13.8 °F 1008.7 in Calm   3.2 mph 94 % 0.0 in
07:45 14.8 °F 13.9 °F 1008.7 in Calm     94 % 0.0 in
08:00 14.9 °F 14.0 °F 1008.7 in Calm   4.8 mph 94 % 0.0 in
08:15 15.1 °F 14.2 °F 1008.4 in Calm   8.0 mph 94 % 0.0 in
08:30 15.3 °F 14.2 °F 1008.4 in Calm   3.2 mph 93 % 0.0 in
08:45 15.6 °F 14.3 °F 1008.0 in Calm   6.4 mph 92 % 0.0 in
09:00 15.8 °F 14.5 °F 1008.0 in Calm   4.8 mph 92 % 0.0 in
09:15 16.0 °F 14.5 °F 1008.0 in SSW 3.2 mph 11.3 mph 91 % 0.0 in
09:30 16.1 °F 14.8 °F 1007.7 in SW 1.6 mph 9.7 mph 92 % 0.0 in
09:45 16.2 °F 14.9 °F 1007.3 in SW 1.6 mph 6.4 mph 92 % 0.0 in
10:00 16.4 °F 14.9 °F 1007.3 in Calm   6.4 mph 91 % 0.0 in
10:15 16.6 °F 15.1 °F 1007.0 in Calm   4.8 mph 91 % 0.0 in
10:30 16.8 °F 15.1 °F 1007.3 in Calm   9.7 mph 90 % 0.0 in
10:45 17.1 °F 15.2 °F 1007.0 in SSW 1.6 mph 9.7 mph 89 % 0.0 in
11:00 17.3 °F 15.3 °F 1007.0 in Calm   6.4 mph 88 % 0.0 in
11:15 17.5 °F 15.1 °F 1006.7 in SSW 1.6 mph 9.7 mph 86 % 0.0 in
11:30 17.9 °F 15.0 °F 1006.7 in Calm   6.4 mph 83 % 0.0 in
11:45 18.0 °F 15.1 °F 1006.7 in Calm   1.6 mph 83 % 0.0 in
12:00 18.4 °F 15.3 °F 1006.7 in Calm   3.2 mph 82 % 0.0 in
12:15 18.7 °F 15.6 °F 1006.7 in Calm   3.2 mph 82 % 0.0 in
12:30 18.7 °F 15.4 °F 1006.7 in Calm     81 % 0.0 in
12:45 18.7 °F 15.5 °F 1006.7 in Calm   6.4 mph 82 % 0.0 in
13:00 18.4 °F 15.4 °F 1006.7 in Calm   6.4 mph 83 % 0.0 in
13:15 18.6 °F 16.0 °F 1006.3 in Calm   6.4 mph 85 % 0.0 in
13:30 18.9 °F 15.9 °F 1006.0 in Calm   6.4 mph 83 % 0.0 in
13:45 19.4 °F 15.7 °F 1006.0 in Calm   6.4 mph 79 % 0.0 in
14:00 19.3 °F 15.7 °F 1005.6 in Calm   6.4 mph 80 % 0.0 in
14:15 19.2 °F 15.8 °F 1005.6 in Calm   3.2 mph 81 % 0.0 in
14:30 18.8 °F 15.9 °F 1005.6 in Calm     83 % 0.0 in
14:45 18.3 °F 15.0 °F 1006.0 in South 1.6 mph 8.0 mph 81 % 0.0 in
15:00 17.9 °F 15.0 °F 1005.6 in Calm   6.4 mph 83 % 0.0 in
15:15 17.8 °F 15.4 °F 1005.6 in South 1.6 mph 8.0 mph 86 % 0.0 in
15:30 16.5 °F 13.8 °F 1005.6 in SSW 6.4 mph 16.1 mph 84 % 0.0 in
15:45 15.7 °F 13.9 °F 1005.3 in Calm   4.8 mph 89 % 0.5 in
16:00 15.2 °F 13.9 °F 1005.6 in Calm   4.8 mph 92 % 0.8 in
16:15 15.1 °F 14.2 °F 1006.0 in Calm   1.6 mph 94 % 1.3 in
16:30 14.8 °F 13.9 °F 1006.0 in Calm   4.8 mph 94 % 1.5 in
16:45 14.4 °F 13.3 °F 1006.3 in SW 1.6 mph 6.4 mph 93 % 1.5 in
17:00 14.2 °F 13.1 °F 1006.0 in Calm   1.6 mph 93 % 1.0 in
17:15 14.1 °F 13.2 °F 1006.0 in Calm   1.6 mph 94 % 0.5 in
17:30 14.1 °F 13.2 °F 1006.0 in Calm     94 % 0.3 in
17:45 14.3 °F 13.5 °F 1006.0 in Calm     95 % 0.0 in
18:00 15.1 °F 14.6 °F 1005.6 in Calm     97 % 0.0 in
18:15 16.3 °F 15.1 °F 1005.3 in Calm   4.8 mph 93 % 0.0 in
18:30 16.4 °F 14.8 °F 1005.3 in Calm   3.2 mph 90 % 0.0 in
18:45 16.1 °F 14.6 °F 1005.0 in Calm   4.8 mph 91 % 0.0 in
19:00 15.8 °F 14.1 °F 1005.0 in Calm   6.4 mph 90 % 0.0 in
19:15 15.6 °F 14.0 °F 1004.6 in Calm   6.4 mph 90 % 0.0 in
19:30 15.4 °F 14.1 °F 1005.0 in Calm   4.8 mph 92 % 0.0 in
19:45 15.3 °F 14.0 °F 1005.0 in Calm   8.0 mph 92 % 0.0 in
20:00 15.3 °F 14.0 °F 1005.0 in Calm     92 % 0.0 in
20:15 15.2 °F 14.0 °F 1005.0 in Calm   1.6 mph 93 % 0.0 in
20:30 15.0 °F 13.9 °F 1004.6 in Calm   8.0 mph 93 % 0.0 in
20:45 15.1 °F 14.0 °F 1004.6 in SSW 1.6 mph 6.4 mph 93 % 0.0 in
21:00 15.2 °F 14.2 °F 1004.6 in SSW 1.6 mph 9.7 mph 94 % 0.0 in
21:15 15.2 °F 13.9 °F 1004.6 in SSW 3.2 mph 9.7 mph 92 % 0.0 in
21:30 15.1 °F 13.6 °F 1004.6 in SSW 1.6 mph 8.0 mph 91 % 0.0 in
21:45 14.8 °F 13.5 °F 1004.6 in SSW 1.6 mph 6.4 mph 92 % 0.0 in
22:00 14.6 °F 13.3 °F 1004.6 in Calm   8.0 mph 92 % 0.0 in
22:15 14.3 °F 13.2 °F 1004.6 in Calm     93 % 0.0 in
22:30 13.8 °F 12.7 °F 1004.6 in Calm   6.4 mph 93 % 0.0 in
22:45 13.6 °F 12.7 °F 1004.6 in Calm     94 % 0.0 in
23:00 13.3 °F 12.3 °F 1005.0 in Calm     94 % 0.0 in
23:15 12.9 °F 12.0 °F 1005.0 in Calm     94 % 0.0 in
23:30 12.8 °F 12.0 °F 1005.0 in Calm     95 % 0.0 in
23:45 12.6 °F 11.8 °F 1004.6 in Calm     95 % 0.0 in
Esan sääasema
Terveisin Weather Underground - 2.75 mb

Alkuperäinen skripti  Jim McMurry - jmcmurry@mwt.net Sovitettu myös templatelle  Wim van der Kuil - Leuven-Template.eu

Laitteet joita käytämme:

Sääasema
Davis VP2

Sääasemaohjelma
Cumulus

Sääaseman tietokone
Asus EeePC

Palveluntarjoaja
Suncomet

Davis VP2

Cumulus

Asus EeePC

Suncomet